This is the latest recevied weather packets stored in our database for station/object HS3MXC-2. If no packets are shown the sender has not sent any weather packets the latest 10 day(s).
| Time | Temp. | Humidity | Pressure | Rain* | Wind** | Luminosity | Snow |
|---|---|---|---|---|---|---|---|
| 1777445085 | 26.11° C | 37% | 993.9 hPa | - | - | - | - |
| 1777444779 | 26.11° C | 38% | 994 hPa | - | - | - | - |
| 1777444472 | 26.11° C | 38% | 994.2 hPa | - | - | - | - |
| 1777444159 | 26.67° C | 39% | 994.3 hPa | - | - | - | - |
| 1777443852 | 26.67° C | 39% | 994.5 hPa | - | - | - | - |
| 1777443545 | 26.67° C | 40% | 994.5 hPa | - | - | - | - |
| 1777443236 | 27.22° C | 41% | 994.6 hPa | - | - | - | - |
| 1777442929 | 27.22° C | 42% | 994.7 hPa | - | - | - | - |
| 1777442619 | 27.22° C | 43% | 994.9 hPa | - | - | - | - |
| 1777442312 | 28.33° C | 46% | 995 hPa | - | - | - | - |
| 1777441694 | 31.11° C | 48% | 995.3 hPa | - | - | - | - |
| 1777441388 | 32.22° C | 49% | 995.5 hPa | - | - | - | - |
| 1777441081 | 31.67° C | 49% | 995.6 hPa | - | - | - | - |
| 1777440774 | 31.67° C | 46% | 995.7 hPa | - | - | - | - |
| 1777440151 | 31.11° C | 46% | 996 hPa | - | - | - | - |
| 1777439537 | 30.56° C | 44% | 996.1 hPa | - | - | - | - |
| 1777439230 | 30° C | 45% | 996.2 hPa | - | - | - | - |
| 1777438923 | 28.33° C | 37% | 996.3 hPa | - | - | - | - |
| 1777438615 | 28.33° C | 38% | 996.3 hPa | - | - | - | - |
| 1777438308 | 27.78° C | 38% | 996.4 hPa | - | - | - | - |
| 1777438001 | 28.33° C | 38% | 996.5 hPa | - | - | - | - |
| 1777437387 | 27.78° C | 39% | 996.7 hPa | - | - | - | - |
| 1777437080 | 27.78° C | 40% | 996.8 hPa | - | - | - | - |
| 1777436466 | 27.78° C | 40% | 996.9 hPa | - | - | - | - |
| 1777436159 | 27.78° C | 41% | 997 hPa | - | - | - | - |
* Rain since midnight (hover to see other rain measurements)
** Current wind speed in m/s (hover to see current wind gust speed)